Tiempo atmosférico en la estación meteorológica de Córdoba, Prágdena, Córdoba (275 m.)



Fecha
DESCASC
Temp. máxima en grados centígrados (hora)
DESCASC
Temp. mínima en grados centígrados (hora)
DESCASC
Temp. media en grados centígrados
DESCASC
Racha de viento máxima en m/sg (hora)
DESCASC
Velocidad máxima media en intervalos de 10 minutos(hora)
DESCASC
Precipitaciones diarias en mm
DESCASC
Precipitaciones de 00:00 a 06:00 en mm
DESCASC
Precipitaciones de 06:00 a 12:00 en mm
DESCASC
Precipitaciones de 12:00 a 18:00 en mm
DESCASC
Precipitaciones de 18:00 a 24:00 en mm
DESCASC
18-10-2018 16.7 (00:00) 12 (16:10) 14.4 9.72 (11:10) 4.72 (11:20) 13.8 0 4.6 8 1.2
17-10-2018 25.1 (17:20) 11.4 (09:10) 18.3 4.17 (23:50) 2.78 (23:50) 0 0 0 0 0
16-10-2018 21.3 (18:00) 12.9 (08:40) 17.1 6.11 (17:10) 3.33 (17:10) 0.6 0.6 0 0 0
15-10-2018 17.4 (14:30) 9.3 (08:10) 13.3 7.78 (14:10) 4.72 (21:00) 9.2 0 0 0 9.2
14-10-2018 22.6 (00:00) 12.4 (00:00) 17.5 12.22 (07:00) 8.33 (07:00) 12.8 0 12.8 0 0
13-10-2018 31.6 (17:10) 15.4 (00:00) 23.5 9.44 (19:30) 5.56 (19:20) 0 0 0 0 0
12-10-2018 28.7 (15:40) 17.8 (00:00) 23.3 5.56 (10:00) 3.33 (10:00) 0 0 0 0 0
11-10-2018 24.2 (17:30) 18.1 (06:50) 21.2 11.67 (14:10) 6.67 (14:10) 0 0 0 0 0
10-10-2018 -- (--) -- (--) -- -- (--) -- (--) 0 0 0 0 0
09-10-2018 26.2 (16:50) 13.3 (07:00) 19.8 7.78 (18:10) 4.44 (17:30) 0 0 0 0 0
08-10-2018 26.8 (17:30) 14 (08:30) 20.4 9.72 (12:30) 6.39 (10:50) 0 0 0 0 0
07-10-2018 29.8 (17:30) 16.6 (08:50) 23.2 8.89 (15:50) 5 (16:10) 0 0 0 0 0
06-10-2018 31 (17:50) 15.5 (08:40) 23.3 6.94 (17:40) 3.89 (17:10) 0 0 0 0 0
05-10-2018 31 (16:50) 14.2 (08:50) 22.6 5.83 (20:00) 3.06 (20:00) 0 0 0 0 0
04-10-2018 30.9 (17:10) 14.5 (00:00) 22.7 5.83 (20:10) 3.33 (20:10) 0 0 0 0 0
03-10-2018 30.7 (17:20) 13.9 (00:00) 22.3 5.83 (21:20) 3.33 (21:20) 0 0 0 0 0
02-10-2018 31.1 (18:00) 15.7 (00:00) 23.4 9.17 (10:20) 6.11 (10:20) 0 0 0 0 0
01-10-2018 31.6 (18:30) 19.2 (00:00) 25.4 6.11 (23:40) 4.72 (23:40) 0 0 0 0 0
30-09-2018 31 (17:50) 18.1 (00:00) 24.6 6.67 (13:40) 3.89 (19:50) 0 0 0 0 0
29-09-2018 30.9 (18:00) 16.6 (00:00) 23.8 4.17 (15:40) 2.22 (17:50) 0 0 0 0 0
28-09-2018 30.6 (18:40) 17.3 (00:00) 23.9 6.67 (14:40) 3.89 (01:10) 0 0 0 0 0
27-09-2018 31.1 (18:10) 17.8 (00:00) 24.4 8.61 (14:50) 5 (15:00) 0 0 0 0 0
26-09-2018 32.6 (17:20) 20.6 (00:00) 26.6 15.28 (18:30) 10.56 (18:30) 0.4 0 0 0 0.4
25-09-2018 35 (16:30) 20.5 (00:00) 27.8 7.78 (18:00) 4.72 (20:00) 0 0 0 0 0
24-09-2018 37.2 (18:10) 19.3 (00:00) 28.3 6.39 (21:00) 3.61 (21:10) 0 0 0 0 0
23-09-2018 36.3 (17:30) 20.2 (08:10) 28.3 7.78 (15:00) 3.89 (16:10) 0 0 0 0 0
22-09-2018 36 (17:50) 21.1 (06:10) 28.6 6.67 (16:50) 3.61 (16:10) 0 0 0 0 0
21-09-2018 34.2 (18:10) 19.8 (07:50) 27 5.28 (16:40) 3.06 (01:10) 0 0 0 0 0
20-09-2018 33 (17:00) 20 (08:10) 26.5 7.22 (17:20) 3.61 (16:20) 0 0 0 0 0

Gráficas

Temp. máximas Temp. mínimas Temp. medias Precipitaciones Rachas de viento máximas Velocidades máximas media en intervalos de 10 minutos

Datos horarios

Fecha y hora oficial Temperatura (ºC) Velocidad del viento (km/h) Dirección del viento Racha (km/h) Dirección de racha Precipitación (mm) Presión (hPa) Tendencia (hPa) Humedad (%)
2018-10-19 23:00:00 14 3 Nordeste 5 Nordeste 0 -- -- 88
2018-10-19 22:00:00 15.3 4 Sudoeste 6 Sudoeste 0 -- -- 83
2018-10-19 21:00:00 16.1 4 Sudoeste 9 Sudoeste 0 -- -- 78
2018-10-19 20:00:00 17.1 5 Sudoeste 14 Oeste 0 -- -- 76
2018-10-19 19:00:00 19 7 Sudoeste 13 Sudoeste 0 -- -- 69
2018-10-19 18:00:00 19.5 3 Sudeste 11 Nordeste 0 -- -- 56
2018-10-19 17:00:00 19.3 6 Nordeste 13 Nordeste 0 -- -- 60
2018-10-19 16:00:00 19.8 8 Nordeste 15 Nordeste 0 -- -- 58
2018-10-19 15:00:00 19.1 6 Nordeste 18 Este 0 -- -- 67
2018-10-19 14:00:00 18.3 11 Nordeste 21 Nordeste 0 -- -- 76
2018-10-19 13:00:00 16.2 7 Este 18 Nordeste 0 -- -- 83
2018-10-19 12:00:00 14.6 8 Este 20 Nordeste 0 -- -- 89
2018-10-19 11:00:00 12.4 11 Nordeste 17 Este 0 -- -- 94
2018-10-19 10:00:00 11 6 Nordeste 14 Nordeste 0 -- -- 99
2018-10-19 09:00:00 9.5 9 Nordeste 16 Nordeste 0 -- -- 99
2018-10-19 08:00:00 9.9 7 Este 10 Nordeste 0 -- -- 98
2018-10-19 07:00:00 10.5 4 Este 11 Este 0 -- -- 97
2018-10-19 06:00:00 11 8 Nordeste 12 Norte 0 -- -- 98
2018-10-19 05:00:00 10.9 6 Norte 12 Norte 0 -- -- 96
2018-10-19 04:00:00 11.7 7 Este 10 Este 0 -- -- 95
2018-10-19 03:00:00 11.9 6 Este 10 Nordeste 0 -- -- 96
2018-10-19 02:00:00 11.9 4 Nordeste 10 Nordeste 0 -- -- 97
2018-10-19 01:00:00 12.1 9 Nordeste 13 Nordeste 0 -- -- 95
2018-10-19 00:00:00 12.2 8 Nordeste 15 Nordeste 0 -- -- 94
2018-10-18 23:00:00 12.4 8 Nordeste 14 Nordeste 0 -- -- 96
2018-10-18 22:00:00 12.4 4 Nordeste 12 Nordeste 0.2 -- -- 96
2018-10-18 21:00:00 12.5 5 Nordeste 10 Nordeste 0.2 -- -- 96
2018-10-18 20:00:00 12.5 6 Este 9 Nordeste 0.8 -- -- 94
2018-10-18 19:00:00 12.7 5 Nordeste 11 Norte 0 -- -- 94
2018-10-18 18:00:00 12.4 4 Nordeste 12 Nordeste 0.2 -- -- 94
2018-10-18 17:00:00 12.3 6 Nordeste 11 Nordeste 0 -- -- 94
2018-10-18 16:00:00 12.1 8 Norte 20 Norte 0.2 -- -- 95
2018-10-18 15:00:00 12.2 6 Norte 12 Sudoeste 2.8 -- -- 96
2018-10-18 14:00:00 12.1 7 Sudoeste 24 Sudoeste 3.2 -- -- 97
2018-10-18 13:00:00 12.4 14 Sur 23 Sur 1.6 -- -- 96
2018-10-18 12:00:00 12.5 15 Sudoeste 35 Oeste 3.4 -- -- 95
2018-10-18 11:00:00 15.7 5 Sudoeste 21 Sudoeste 0 -- -- 94
2018-10-18 10:00:00 15.5 3 Este 8 Este 0 -- -- 94
2018-10-18 09:00:00 15.1 6 Este 11 Este 0 -- -- 94
2018-10-18 08:00:00 15.6 5 Nordeste 8 Este 0.2 -- -- 94
2018-10-18 07:00:00 15.7 0 Calma 5 Sudeste 1 -- -- 93
2018-10-18 06:00:00 15.6 3 Este 6 Norte 0 -- -- 91
2018-10-18 05:00:00 15.9 0 Calma 4 Norte 0 -- -- 89
2018-10-18 04:00:00 16.2 3 Sudoeste 10 Sudeste 0 -- -- 88
2018-10-18 03:00:00 16.5 4 Sur 12 Sur 0 -- -- 87
2018-10-18 02:00:00 16.5 7 Sur 12 Sur 0 -- -- 85
2018-10-18 01:00:00 16.5 7 Sur 13 Sur 0 -- -- 83
2018-10-18 00:00:00 16.7 7 Sur 15 Sur 0 -- -- 77
2018-10-17 23:00:00 17.9 7 Sur 10 Sur 0 -- -- 70
2018-10-17 22:00:00 18.7 4 Sudoeste 7 Sudoeste 0 -- -- 65
2018-10-17 21:00:00 19.5 3 Sur 5 Sudoeste 0 -- -- 62
2018-10-17 20:00:00 21.2 4 Sudoeste 11 Sudoeste 0 -- -- 59
2018-10-17 19:00:00 23.8 9 Sudoeste 14 Sudoeste 0 -- -- 47
2018-10-17 18:00:00 25 6 Sudoeste 12 Sudoeste 0 -- -- 42
2018-10-17 17:00:00 24.9 5 Sudoeste 11 Sudoeste 0 -- -- 46
2018-10-17 16:00:00 24.4 2 Sur 10 Norte 0 -- -- 49
2018-10-17 15:00:00 23.2 5 Sudeste 12 Nordeste 0 -- -- 57
2018-10-17 14:00:00 21.6 5 Norte 13 Nordeste 0 -- -- 60
2018-10-17 13:00:00 19.8 4 Norte 12 Norte 0 -- -- 73
2018-10-17 12:00:00 17.8 5 Norte 9 Norte 0 -- -- 80
2018-10-17 11:00:00 16.2 3 Este 5 Este 0 -- -- 85
2018-10-17 10:00:00 13 3 Norte 9 Nordeste 0 -- -- 95
2018-10-17 09:00:00 11.5 4 Nordeste 10 Nordeste 0 -- -- 96
2018-10-17 08:00:00 12.2 7 Nordeste 9 Nordeste 0 -- -- 96
2018-10-17 07:00:00 12 7 Norte 9 Norte 0 -- -- 95
2018-10-17 06:00:00 12.5 4 Norte 8 Nordeste 0 -- -- 95
2018-10-17 05:00:00 13 0 Calma 3 Oeste 0 -- -- 94
2018-10-17 04:00:00 13.4 0 Calma 3 Oeste 0 -- -- 93
2018-10-17 03:00:00 13.9 0 Calma 4 Sudoeste 0 -- -- 91
2018-10-17 02:00:00 14.4 3 Sudoeste 4 Sudoeste 0 -- -- 91
2018-10-17 01:00:00 14.9 0 Calma 5 Sudoeste 0 -- -- 89
2018-10-17 00:00:00 15.6 2 Sudoeste 4 Sur 0 -- -- 87
2018-10-16 23:00:00 16.4 2 Sudoeste 6 Sudoeste 0 -- -- 85
2018-10-16 22:00:00 17.5 3 Sudoeste 6 Sudoeste 0 -- -- 79
2018-10-16 21:00:00 18.6 3 Este 5 Sudeste 0 -- -- 76
2018-10-16 20:00:00 20.2 2 Sudeste 7 Nordeste 0 -- -- 67
2018-10-16 19:00:00 21.2 5 Nordeste 17 Este 0 -- -- 61
2018-10-16 18:00:00 21.3 6 Nordeste 22 Nordeste 0 -- -- 59
2018-10-16 17:00:00 20.9 10 Nordeste 18 Nordeste 0 -- -- 61
2018-10-16 16:00:00 19.9 8 Norte 14 Nordeste 0 -- -- 67
2018-10-16 15:00:00 19 8 Nordeste 15 Nordeste 0 -- -- 72
2018-10-16 14:00:00 18 11 Nordeste 18 Este 0 -- -- 79
2018-10-16 13:00:00 16.7 8 Nordeste 16 Nordeste 0 -- -- 84
2018-10-16 12:00:00 15.3 6 Nordeste 10 Norte 0 -- -- 87
2018-10-16 11:00:00 14.4 5 Nordeste 9 Norte 0 -- -- 91
2018-10-16 10:00:00 13.8 3 Nordeste 6 Nordeste 0 -- -- 94
2018-10-16 09:00:00 13 3 Nordeste 8 Nordeste 0 -- -- 97
2018-10-16 08:00:00 13.1 4 Nordeste 9 Este 0 -- -- 96
2018-10-16 07:00:00 13.2 4 Nordeste 9 Nordeste 0 -- -- 95
2018-10-16 06:00:00 13.1 8 Nordeste 14 Nordeste 0 -- -- 95
2018-10-16 05:00:00 13.1 8 Nordeste 13 Nordeste 0 -- -- 95
2018-10-16 04:00:00 13 8 Nordeste 15 Nordeste 0 -- -- 95
2018-10-16 03:00:00 13 8 Nordeste 13 Este 0 -- -- 96
2018-10-16 02:00:00 13.3 7 Nordeste 12 Nordeste 0.6 -- -- 96
2018-10-16 01:00:00 14 5 Norte 12 Nordeste 0 -- -- 93
2018-10-16 00:00:00 14.3 5 Este 14 Este 0 -- -- 90
2018-10-15 23:00:00 14.2 10 Este 22 Este 0 -- -- 92
2018-10-15 22:00:00 13.7 11 Nordeste 23 Este 0 -- -- 93
2018-10-15 21:00:00 13.7 17 Este 23 Este 3 -- -- 94
2018-10-15 20:00:00 14.5 9 Este 14 Este 2.4 -- -- 92
2018-10-15 19:00:00 15.4 3 Sudeste 8 Este 3.8 -- -- 88
2018-10-15 18:00:00 16.5 2 Sur 13 Sudoeste 0 -- -- 72
2018-10-15 17:00:00 16.9 3 Sur 13 Sur 0 -- -- 70
2018-10-15 16:00:00 17 9 Sudoeste 22 Sudoeste 0 -- -- 64
2018-10-15 15:00:00 17.3 14 Sudoeste 28 Sur 0 -- -- 61
2018-10-15 14:00:00 16.6 12 Sudoeste 26 Sudoeste 0 -- -- 57
2018-10-15 13:00:00 15.7 15 Sudoeste 24 Sudoeste 0 -- -- 63
2018-10-15 12:00:00 14.2 9 Sudoeste 20 Sur 0 -- -- 71
2018-10-15 11:00:00 12.2 9 Sur 17 Sudoeste 0 -- -- 82
2018-10-15 10:00:00 11.1 8 Sudoeste 13 Sur 0 -- -- 84
2018-10-15 09:00:00 9.5 6 Sur 13 Sudoeste 0 -- -- 90
2018-10-15 08:00:00 9.4 7 Sur 12 Sur 0 -- -- 90
2018-10-15 07:00:00 9.8 7 Sur 12 Sur 0 -- -- 88
2018-10-15 06:00:00 10.3 6 Sur 11 Sur 0 -- -- 86
2018-10-15 05:00:00 10.6 7 Sur 10 Sur 0 -- -- 85
2018-10-15 04:00:00 10.6 6 Sur 10 Sur 0 -- -- 85
2018-10-15 03:00:00 11.4 3 Sur 9 Sur 0 -- -- 81
2018-10-15 02:00:00 11.8 3 Sur 12 Sudoeste 0 -- -- 80
2018-10-15 01:00:00 12.4 6 Sudoeste 10 Sur 0 -- -- 78
2018-10-15 00:00:00 12.4 7 Oeste 14 Oeste 0 -- -- 78
2018-10-14 23:00:00 12.9 6 Sudoeste 17 Oeste 0 -- -- 76
2018-10-14 22:00:00 14.1 13 Oeste 20 Oeste 0 -- -- 69
2018-10-14 21:00:00 15 15 Oeste 21 Oeste 0 -- -- 65
2018-10-14 20:00:00 16.1 13 Sudoeste 21 Oeste 0 -- -- 63
2018-10-14 19:00:00 18.1 18 Oeste 27 Oeste 0 -- -- 55
2018-10-14 18:00:00 18.6 15 Oeste 30 Oeste 0 -- -- 47
2018-10-14 17:00:00 18.4 15 Oeste 36 Oeste 0 -- -- 47
2018-10-14 16:00:00 18.5 22 Oeste 40 Oeste 0 -- -- 53
2018-10-14 15:00:00 17.9 15 Oeste 34 Sudoeste 0 -- -- 58
2018-10-14 14:00:00 17.8 23 Sudoeste 35 Oeste 0 -- -- 68
2018-10-14 13:00:00 16.8 23 Sudoeste 36 Oeste 0 -- -- 78
2018-10-14 12:00:00 16 16 Oeste 33 Oeste 0 -- -- 80
2018-10-14 11:00:00 15.6 23 Oeste 39 Oeste 0 -- -- 95
2018-10-14 10:00:00 16.8 17 Sudoeste 33 Sudoeste 0.2 -- -- 96
2018-10-14 09:00:00 17.1 12 Sudoeste 25 Sur 3.2 -- -- 97
2018-10-14 08:00:00 17.2 11 Sudoeste 37 Oeste 6.8 -- -- 95
2018-10-14 07:00:00 17.5 30 Oeste 44 Sudoeste 2.6 -- -- 90
2018-10-14 06:00:00 19.9 13 Sudoeste 24 Sudoeste 0 -- -- 72
2018-10-14 05:00:00 21 13 Sudoeste 22 Sudoeste 0 -- -- 58
2018-10-14 04:00:00 19.2 4 Sudeste 12 Norte 0 -- -- 59
2018-10-14 03:00:00 19.2 8 Norte 11 Norte 0 -- -- 60
2018-10-14 02:00:00 19.3 5 Este 11 Este 0 -- -- 59
2018-10-14 01:00:00 21.2 5 Oeste 11 Sudoeste 0 -- -- 56
2018-10-14 00:00:00 22.6 10 Sudoeste 16 Sudoeste 0 -- -- 53
2018-10-13 23:00:00 23.2 3 Sudeste 16 Sur 0 -- -- 52
2018-10-13 22:00:00 24.1 9 Sur 18 Sudoeste 0 -- -- 53
2018-10-13 21:00:00 25.2 10 Sudoeste 22 Sudoeste 0 -- -- 50
2018-10-13 20:00:00 27.1 14 Sudoeste 34 Sudoeste 0 -- -- 41
2018-10-13 19:00:00 30 15 Sudoeste 33 Sudoeste 0 -- -- 31
2018-10-13 18:00:00 31.5 14 Sudoeste 27 Sudoeste 0 -- -- 30
2018-10-13 17:00:00 31.3 7 Sudoeste 15 Oeste 0 -- -- 34
2018-10-13 16:00:00 30.6 8 Sudoeste 16 Sudoeste 0 -- -- 35
2018-10-13 15:00:00 29.7 8 Sudoeste 15 Oeste 0 -- -- 39
2018-10-13 14:00:00 28.3 5 Nordeste 15 Norte 0 -- -- 45
2018-10-13 13:00:00 25.5 7 Norte 13 Norte 0 -- -- 55
2018-10-13 12:00:00 24.4 7 Nordeste 17 Este 0 -- -- 57
2018-10-13 11:00:00 22.9 9 Este 17 Este 0 -- -- 62
2018-10-13 10:00:00 19.5 9 Nordeste 13 Nordeste 0 -- -- 72
2018-10-13 09:00:00 16.2 6 Nordeste 10 Nordeste 0 -- -- 82
2018-10-13 08:00:00 15.6 6 Nordeste 15 Norte 0 -- -- 81
2018-10-13 07:00:00 16.6 10 Norte 13 Norte 0 -- -- 77
2018-10-13 06:00:00 17 9 Nordeste 13 Este 0 -- -- 75
2018-10-13 05:00:00 17.9 7 Nordeste 9 Nordeste 0 -- -- 72
2018-10-13 04:00:00 18.6 4 Nordeste 5 Nordeste 0 -- -- 70
2018-10-13 03:00:00 19.4 5 Nordeste 9 Nordeste 0 -- -- 67
2018-10-13 02:00:00 19.5 7 Este 8 Este 0 -- -- 66
2018-10-13 01:00:00 20.3 6 Norte 8 Norte 0 -- -- 61
2018-10-13 00:00:00 21.1 0 Calma 3 Este 0 -- -- 62
2018-10-12 23:00:00 22.4 2 Nordeste 6 Este 0 -- -- 58
2018-10-12 22:00:00 23.1 5 Este 7 Este 0 -- -- 57
2018-10-12 21:00:00 24.3 4 Norte 13 Norte 0 -- -- 55
2018-10-12 20:00:00 25.5 9 Noroeste 13 Norte 0 -- -- 52
2018-10-12 19:00:00 26.8 9 Noroeste 14 Norte 0 -- -- 50
2018-10-12 18:00:00 27.2 7 Norte 18 Norte 0 -- -- 49
2018-10-12 17:00:00 27.8 4 Noroeste 19 Norte 0 -- -- 48
2018-10-12 16:00:00 28.7 9 Norte 18 Norte 0 -- -- 47
2018-10-12 15:00:00 28.3 8 Norte 17 Norte 0 -- -- 47
2018-10-12 14:00:00 27 8 Norte 19 Norte 0 -- -- 50
2018-10-12 13:00:00 25.6 6 Norte 14 Nordeste 0 -- -- 54
2018-10-12 12:00:00 23.4 7 Nordeste 14 Norte 0 -- -- 59
2018-10-12 11:00:00 21.7 8 Nordeste 17 Este 0 -- -- 66
2018-10-12 10:00:00 19.8 12 Este 20 Este 0 -- -- 72
2018-10-12 09:00:00 18 6 Nordeste 11 Este 0 -- -- 78
2018-10-12 08:00:00 18.5 7 Este 12 Este 0 -- -- 76
2018-10-12 07:00:00 19.3 7 Este 12 Este 0 -- -- 74
2018-10-12 06:00:00 19.4 5 Este 6 Este 0 -- -- 76
2018-10-12 05:00:00 19.1 3 Nordeste 7 Este 0 -- -- 77
2018-10-12 04:00:00 19.1 3 Sudeste 5 Sudeste 0 -- -- 79
2018-10-12 03:00:00 18.5 3 Sudeste 7 Sudeste 0 -- -- 80
2018-10-12 02:00:00 18.5 2 Sur 6 Sur 0 -- -- 80
2018-10-12 01:00:00 18.7 3 Sur 12 Sur 0 -- -- 79
2018-10-12 00:00:00 19 8 Sur 12 Sur 0 -- -- 76
2018-10-11 23:00:00 19.4 6 Sur 12 Sur 0 -- -- 72
2018-10-11 22:00:00 20.5 9 Sudoeste 22 Sudoeste 0 -- -- 66
2018-10-11 21:00:00 21.3 9 Sudoeste 19 Sudoeste 0 -- -- 64
2018-10-11 20:00:00 22.2 11 Sudoeste 27 Sudoeste 0 -- -- 63
2018-10-11 19:00:00 23.5 13 Sudoeste 28 Sudoeste 0 -- -- 58
2018-10-11 18:00:00 23.8 20 Sudoeste 34 Sudoeste 0 -- -- 58
2018-10-11 17:00:00 23.1 14 Sur 27 Sur 0 -- -- 72
2018-10-11 16:00:00 21.2 19 Sur 29 Sudoeste 0 -- -- 79
2018-10-11 15:00:00 20 11 Sur 42 Sudoeste 0 -- -- 90
2018-10-11 14:00:00 22.6 17 Sudoeste 27 Sudoeste 0 -- -- 67
2018-10-11 13:00:00 22.1 12 Sudoeste 20 Sudoeste 0 -- -- 65
2018-10-11 12:00:00 19.8 9 Noroeste 22 Norte 0 -- -- 77
2018-10-11 11:00:00 20.5 2 Sudeste 6 Nordeste 0 -- -- 67
2018-10-11 10:00:00 19.5 4 Nordeste 8 Norte 0 -- -- 70
2018-10-11 09:00:00 19.1 7 Nordeste 15 Este 0 -- -- 70
2018-10-11 08:00:00 18.3 6 Nordeste 10 Nordeste 0 -- -- 74
2018-10-11 07:00:00 18.2 7 Nordeste 11 Nordeste 0 -- -- 73
2018-10-11 06:00:00 18.2 4 Este 5 Nordeste 0 -- -- 74
2018-10-11 05:00:00 18.5 3 Este 7 Este 0 -- -- 73
2018-10-11 04:00:00 19 2 Este 4 Sudoeste 0 -- -- 73
2018-10-11 03:00:00 19.2 2 Sudoeste 4 Sudoeste 0 -- -- 74
2018-10-11 02:00:00 19.3 3 Sudoeste 6 Sudoeste 0 -- -- 74
2018-10-11 01:00:00 19.2 3 Sudoeste 9 Sur 0 -- -- 72
2018-10-11 00:00:00 20.1 6 Sur 15 Sur 0 -- -- 71
2018-10-10 23:00:00 20.9 10 Sur 15 Sur 0 -- -- 67
2018-10-10 22:00:00 21.9 9 Sudoeste 16 Sudoeste 0 -- -- 63
2018-10-10 21:00:00 22.3 5 Sur 10 Sudoeste 0 -- -- 56
2018-10-10 20:00:00 23.6 5 Sudoeste 17 Sudoeste 0 -- -- 53
2018-10-10 19:00:00 25.3 9 Sudoeste 25 Sudoeste 0 -- -- 50
2018-10-10 18:00:00 26.1 13 Sudoeste 25 Sudoeste 0 -- -- 48
2018-10-10 17:00:00 25.9 8 Sudoeste 26 Sudoeste 0 -- -- 50
2018-10-10 16:00:00 25.4 12 Sudoeste 27 Oeste 0 -- -- 50
2018-10-10 15:00:00 24.2 10 Sudoeste -- -- -- -- -- 55
2018-10-10 14:00:00 -- 10 Oeste -- -- -- -- -- --
2018-10-10 13:00:00 22.8 11 Sudoeste 19 Sur 0 -- -- 59
2018-10-10 12:00:00 21.2 3 Norte 11 Nordeste 0 -- -- 64
2018-10-10 11:00:00 19.4 5 Nordeste 13 Nordeste 0 -- -- 72
2018-10-10 10:00:00 17.3 9 Nordeste 14 Nordeste 0 -- -- 80
2018-10-10 09:00:00 15.5 4 Este 13 Este 0 -- -- 85
2018-10-10 08:00:00 15.6 5 Este 13 Nordeste 0 -- -- 85
2018-10-10 07:00:00 15.6 8 Nordeste 17 Este 0 -- -- 86
2018-10-10 06:00:00 15.9 9 Nordeste 15 Nordeste 0 -- -- 86
2018-10-10 05:00:00 15.9 9 Nordeste 14 Nordeste 0 -- -- 87
2018-10-10 04:00:00 15.7 8 Nordeste 13 Nordeste 0 -- -- 89
2018-10-10 03:00:00 16.3 7 Norte 14 Nordeste 0 -- -- 87
2018-10-10 02:00:00 17 8 Nordeste 21 Nordeste 0 -- -- 82
2018-10-10 01:00:00 17.5 13 Nordeste 27 Nordeste 0 -- -- 79
2018-10-10 00:00:00 18.8 13 Norte 22 Sur 0 -- -- 75
2018-10-09 23:00:00 20.1 13 Sur 24 Sur 0 -- -- 68
2018-10-09 22:00:00 20.8 12 Sur 26 Sur 0 -- -- 63
2018-10-09 21:00:00 21.7 5 Sudeste 22 Sur 0 -- -- 59
2018-10-09 20:00:00 22.6 12 Sur 23 Sur 0 -- -- 57
2018-10-09 19:00:00 23.9 11 Sur 28 Sudoeste 0 -- -- 49
2018-10-09 18:00:00 25.4 12 Sudoeste 25 Sudoeste 0 -- -- 43
2018-10-09 17:00:00 26 11 Sudoeste 19 Oeste 0 -- -- 41
2018-10-09 16:00:00 25.2 10 Noroeste 21 Noroeste 0 -- -- 44
2018-10-09 15:00:00 25.1 10 Oeste 26 Oeste 0 -- -- 44
2018-10-09 14:00:00 24.2 9 Sudoeste 19 Sudoeste 0 -- -- 48
2018-10-09 13:00:00 22.9 4 Noroeste 12 Nordeste 0 -- -- 47
2018-10-09 12:00:00 20.8 7 Norte 14 Norte 0 -- -- 41
2018-10-09 11:00:00 18.4 7 Nordeste 13 Nordeste 0 -- -- 44
2018-10-09 10:00:00 15.7 7 Nordeste 14 Norte 0 -- -- 47
2018-10-09 09:00:00 14 9 Norte 11 Norte 0 -- -- 49
2018-10-09 08:00:00 14.2 8 Nordeste 14 Norte 0 -- -- 48
2018-10-09 07:00:00 13.3 11 Norte 22 Norte 0 -- -- 48
2018-10-09 06:00:00 14.5 6 Nordeste 12 Nordeste 0 -- -- 46
2018-10-09 05:00:00 14.7 8 Nordeste 13 Norte 0 -- -- 44
2018-10-09 04:00:00 14.9 5 Nordeste 13 Norte 0 -- -- 44
2018-10-09 03:00:00 17 0 Calma 4 Nordeste 0 -- -- 40
2018-10-09 02:00:00 18.3 3 Sur 13 Este 0 -- -- 38
2018-10-09 01:00:00 18.9 3 Este 12 Este 0 -- -- 37
2018-10-09 00:00:00 20.5 11 Este 22 Este 0 -- -- 35
2018-10-08 23:00:00 18.5 8 Norte 19 Sudoeste 0 -- -- 40
2018-10-08 22:00:00 20.4 0 Calma 3 Este 0 -- -- 37
2018-10-08 21:00:00 22 0 Calma 5 Sudoeste 0 -- -- 34
2018-10-08 20:00:00 24.2 6 Sudoeste 16 Sudoeste 0 -- -- 32
2018-10-08 19:00:00 26.2 8 Sudoeste 19 Oeste 0 -- -- 29
2018-10-08 18:00:00 26.8 8 Sudoeste 18 Sudoeste 0 -- -- 29
2018-10-08 17:00:00 26.5 6 Sur 25 Noroeste 0 -- -- 30
2018-10-08 16:00:00 25.8 5 Noroeste 12 Oeste 0 -- -- 32
2018-10-08 15:00:00 25.2 4 Oeste 15 Este 0 -- -- 32
2018-10-08 14:00:00 24 5 Nordeste 29 Este 0 -- -- 34
2018-10-08 13:00:00 22.6 19 Nordeste 35 Nordeste 0 -- -- 34
2018-10-08 12:00:00 20.8 20 Nordeste 33 Nordeste 0 -- -- 37
2018-10-08 11:00:00 19.3 21 Nordeste 33 Nordeste 0 -- -- 42
2018-10-08 10:00:00 17.1 17 Nordeste 26 Nordeste 0 -- -- 42
2018-10-08 09:00:00 14.4 9 Nordeste 17 Nordeste 0 -- -- 43
2018-10-08 08:00:00 14.1 10 Nordeste 15 Nordeste 0 -- -- 43
2018-10-08 07:00:00 14.7 12 Nordeste 17 Nordeste 0 -- -- 41
2018-10-08 06:00:00 15.4 12 Nordeste 16 Nordeste 0 -- -- 40
2018-10-08 05:00:00 16.5 9 Nordeste 14 Nordeste 0 -- -- 38
2018-10-08 04:00:00 17.1 9 Nordeste 17 Nordeste 0 -- -- 37
2018-10-08 03:00:00 18.2 8 Este 20 Este 0 -- -- 36
2018-10-08 02:00:00 18.4 11 Este 18 Este 0 -- -- 50
2018-10-08 01:00:00 19.3 5 Sur 12 Sudoeste 0 -- -- 47
2018-10-08 00:00:00 21 9 Sur 17 Sudoeste 0 -- -- 42
2018-10-07 23:00:00 22.2 6 Sudoeste 22 Sudoeste 0 -- -- 40
2018-10-07 22:00:00 24 11 Sudoeste 20 Sudoeste 0 -- -- 38
2018-10-07 21:00:00 24.8 9 Sudoeste 15 Sudoeste 0 -- -- 35
2018-10-07 20:00:00 27.3 10 Sudoeste 25 Sudoeste 0 -- -- 31
2018-10-07 19:00:00 29.4 12 Sudoeste 24 Sudoeste 0 -- -- 28
2018-10-07 18:00:00 29.5 18 Oeste 31 Sudoeste 0 -- -- 29
2018-10-07 17:00:00 29.5 17 Sudoeste 32 Sudoeste 0 -- -- 31
2018-10-07 16:00:00 29.1 13 Sudoeste 32 Sudoeste 0 -- -- 32
2018-10-07 15:00:00 27.9 13 Sudoeste 27 Sudoeste 0 -- -- 37
2018-10-07 14:00:00 26.9 11 Sudoeste 21 Sudoeste 0 -- -- 42
2018-10-07 13:00:00 23.9 12 Sudoeste 21 Sudoeste 0 -- -- 60
2018-10-07 12:00:00 22.4 9 Sudoeste 17 Sudoeste 0 -- -- 68
2018-10-07 11:00:00 20.4 8 Sudoeste 13 Sudoeste 0 -- -- 78
2018-10-07 10:00:00 18.9 5 Sudoeste 9 Sudoeste 0 -- -- 80
2018-10-07 09:00:00 16.8 0 Calma 6 Sudoeste 0 -- -- 75
2018-10-07 08:00:00 17.3 4 Sudoeste 11 Sudoeste 0 -- -- 70
2018-10-07 07:00:00 18.6 6 Sudoeste 12 Sudoeste 0 -- -- 68
2018-10-07 06:00:00 19 5 Sur 10 Sudoeste 0 -- -- 66
2018-10-07 05:00:00 19.3 6 Sudoeste 15 Sudoeste 0 -- -- 66
2018-10-07 04:00:00 19.6 7 Sudoeste 15 Sur 0 -- -- 63
2018-10-07 03:00:00 20.2 9 Sudoeste 14 Sur 0 -- -- 55
2018-10-07 02:00:00 20.9 7 Sur 13 Sur 0 -- -- 47
2018-10-07 01:00:00 21.8 9 Sur 14 Sur 0 -- -- 40
2018-10-07 00:00:00 22.3 10 Sur 14 Sur 0 -- -- 36
2018-10-06 23:00:00 23 5 Sur 10 Sur 0 -- -- 34
2018-10-06 22:00:00 24.2 7 Sur 10 Sur 0 -- -- 32
2018-10-06 21:00:00 25.3 5 Sudoeste 15 Sudoeste 0 -- -- 30
2018-10-06 20:00:00 28 10 Sudoeste 18 Sudoeste 0 -- -- 27
2018-10-06 19:00:00 30.5 10 Sudoeste 20 Oeste 0 -- -- 23
2018-10-06 18:00:00 30.8 14 Sudoeste 25 Oeste 0 -- -- 23
2018-10-06 17:00:00 30.7 8 Sudoeste 22 Sudoeste 0 -- -- 23
2018-10-06 16:00:00 30.1 11 Oeste 23 Oeste 0 -- -- 25
2018-10-06 15:00:00 29.3 8 Sudoeste 19 Sudoeste 0 -- -- 27
2018-10-06 14:00:00 28.2 8 Sudoeste 20 Sudoeste 0 -- -- 30
2018-10-06 13:00:00 26.6 5 Nordeste 15 Este 0 -- -- 35
2018-10-06 12:00:00 23.8 6 Nordeste 13 Nordeste 0 -- -- 41
2018-10-06 11:00:00 20.7 6 Norte 10 Norte 0 -- -- 48
2018-10-06 10:00:00 17.4 5 Norte 9 Nordeste 0 -- -- 55
2018-10-06 09:00:00 15.9 4 Este 8 Nordeste 0 -- -- 57
2018-10-06 08:00:00 16.1 4 Nordeste 9 Nordeste 0 -- -- 56
2018-10-06 07:00:00 16.8 8 Nordeste 13 Nordeste 0 -- -- 55
2018-10-06 06:00:00 17.2 8 Nordeste 9 Nordeste 0 -- -- 53
2018-10-06 05:00:00 17 5 Nordeste 9 Nordeste 0 -- -- 54
2018-10-06 04:00:00 17.3 5 Nordeste 6 Nordeste 0 -- -- 53
2018-10-06 03:00:00 17.9 3 Norte 6 Norte 0 -- -- 52
2018-10-06 02:00:00 18.5 0 Calma 4 Norte 0 -- -- 50
2018-10-06 01:00:00 19.9 3 Norte 6 Norte 0 -- -- 48
2018-10-06 00:00:00 20.8 5 Norte 10 Sudoeste 0 -- -- 45
2018-10-05 23:00:00 22.4 6 Sudoeste 10 Sudoeste 0 -- -- 43
2018-10-05 22:00:00 23.6 6 Sudoeste 16 Sudoeste 0 -- -- 41
2018-10-05 21:00:00 25.4 9 Sudoeste 19 Sudoeste 0 -- -- 38
2018-10-05 20:00:00 27.8 11 Sudoeste 21 Sudoeste 0 -- -- 32
2018-10-05 19:00:00 30.3 5 Oeste 14 Sur 0 -- -- 24
2018-10-05 18:00:00 31 6 Sudoeste 17 Sudoeste 0 -- -- 24
2018-10-05 17:00:00 30.7 8 Sudeste 14 Sudeste 0 -- -- 24
2018-10-05 16:00:00 30.8 7 Sudoeste 17 Sur 0 -- -- 24
2018-10-05 15:00:00 29.4 4 Oeste 14 Norte 0 -- -- 25
2018-10-05 14:00:00 28.6 3 Oeste 12 Este 0 -- -- 26
2018-10-05 13:00:00 26.5 5 Este 14 Este 0 -- -- 30
2018-10-05 12:00:00 23.9 5 Nordeste 12 Este 0 -- -- 36
2018-10-05 11:00:00 20.9 7 Norte 11 Norte 0 -- -- 42
2018-10-05 10:00:00 17.4 6 Nordeste 11 Nordeste 0 -- -- 48
2018-10-05 09:00:00 14.9 8 Nordeste 12 Norte 0 -- -- 53
2018-10-05 08:00:00 15 4 Nordeste 7 Norte 0 -- -- 53
2018-10-05 07:00:00 16 3 Norte 8 Nordeste 0 -- -- 49
2018-10-05 06:00:00 16.7 7 Este 9 Este 0 -- -- 47
2018-10-05 05:00:00 17.3 4 Norte 9 Este 0 -- -- 45
2018-10-05 04:00:00 18.3 7 Nordeste 8 Este 0 -- -- 43
2018-10-05 03:00:00 18.6 3 Nordeste 5 Nordeste 0 -- -- 43
2018-10-05 02:00:00 18.9 0 Calma 8 Noroeste 0 -- -- 42
2018-10-05 01:00:00 19.6 6 Norte 11 Norte 0 -- -- 41
2018-10-05 00:00:00 21.2 6 Norte 10 Norte 0 -- -- 38
2018-10-04 23:00:00 22.4 7 Sudoeste 12 Sudoeste 0 -- -- 37
2018-10-04 22:00:00 23.3 6 Sudoeste 16 Sur 0 -- -- 34
2018-10-04 21:00:00 25 11 Sur 21 Sudoeste 0 -- -- 31
2018-10-04 20:00:00 28.1 8 Sudoeste 13 Oeste 0 -- -- 26
2018-10-04 19:00:00 30.6 2 Sudoeste 14 Oeste 0 -- -- 24
2018-10-04 18:00:00 30.6 7 Sudoeste 18 Sudoeste 0 -- -- 25
2018-10-04 17:00:00 30.8 7 Sudoeste 17 Sudoeste 0 -- -- 26
2018-10-04 16:00:00 29.7 8 Sudoeste 19 Oeste 0 -- -- 26
2018-10-04 15:00:00 28.9 7 Oeste 15 Noroeste 0 -- -- 30
2018-10-04 14:00:00 27.7 4 Nordeste 12 Oeste 0 -- -- 33
2018-10-04 13:00:00 25.3 5 Norte 12 Norte 0 -- -- 37
2018-10-04 12:00:00 23.5 6 Norte 13 Norte 0 -- -- 41
2018-10-04 11:00:00 21.2 6 Norte 10 Norte 0 -- -- 45
2018-10-04 10:00:00 17.4 6 Norte 10 Nordeste 0 -- -- 52
2018-10-04 09:00:00 15.2 9 Nordeste 11 Nordeste 0 -- -- 56
2018-10-04 08:00:00 15.1 6 Nordeste 9 Nordeste 0 -- -- 58
2018-10-04 07:00:00 16 6 Este 8 Este 0 -- -- 53
2018-10-04 06:00:00 16.4 2 Nordeste 6 Norte 0 -- -- 51
2018-10-04 05:00:00 16.3 0 Calma 6 Este 0 -- -- 50
2018-10-04 04:00:00 17.4 2 Norte 6 Este 0 -- -- 46
2018-10-04 03:00:00 17.9 3 Nordeste 4 Norte 0 -- -- 47
2018-10-04 02:00:00 18.6 3 Norte 9 Noroeste 0 -- -- 45
2018-10-04 01:00:00 19.3 7 Norte 10 Norte 0 -- -- 44
2018-10-04 00:00:00 20.9 7 Sudoeste 13 Sudoeste 0 -- -- 41
2018-10-03 23:00:00 21.9 7 Sudoeste 16 Sur 0 -- -- 36
2018-10-03 22:00:00 23.2 9 Sudoeste 21 Sur 0 -- -- 35
2018-10-03 21:00:00 24.9 8 Sudoeste 16 Sur 0 -- -- 36
2018-10-03 20:00:00 28.4 6 Sudoeste 14 Oeste 0 -- -- 26
2018-10-03 19:00:00 30.3 7 Oeste 14 Sudoeste 0 -- -- 23
2018-10-03 18:00:00 30.4 11 Oeste 17 Oeste 0 -- -- 24
2018-10-03 17:00:00 30.4 9 Sudoeste 19 Sur 0 -- -- 24
2018-10-03 16:00:00 30 5 Sudoeste 15 Sudoeste 0 -- -- 24
2018-10-03 15:00:00 29.6 4 Sur 11 Sudoeste 0 -- -- 26
2018-10-03 14:00:00 26.9 6 Norte 14 Nordeste 0 -- -- 29
2018-10-03 13:00:00 25.1 8 Norte 17 Norte 0 -- -- 37
2018-10-03 12:00:00 23.4 6 Nordeste 14 Nordeste 0 -- -- 34
2018-10-03 11:00:00 21 8 Nordeste 12 Nordeste 0 -- -- 29
2018-10-03 10:00:00 16.9 6 Norte 11 Norte 0 -- -- 33
2018-10-03 09:00:00 14.4 8 Norte 11 Norte 0 -- -- 34
2018-10-03 08:00:00 14.6 6 Nordeste 13 Norte 0 -- -- 33
2018-10-03 07:00:00 14 11 Norte 13 Norte 0 -- -- 33
2018-10-03 06:00:00 15.8 5 Nordeste 9 Nordeste 0 -- -- 29
2018-10-03 05:00:00 16.6 6 Nordeste 11 Nordeste 0 -- -- 28
2018-10-03 04:00:00 16.8 2 Norte 11 Norte 0 -- -- 33
2018-10-03 03:00:00 16.6 8 Norte 10 Norte 0 -- -- 26
2018-10-03 02:00:00 16.8 0 Calma 7 Este 0 -- -- 26
2018-10-03 01:00:00 18.6 0 Calma 4 Sudeste 0 -- -- 24
2018-10-03 00:00:00 20.9 2 Nordeste 13 Nordeste 0 -- -- 22
2018-10-02 23:00:00 21.6 10 Nordeste 14 Nordeste 0 -- -- 20
2018-10-02 22:00:00 22.6 12 Nordeste 20 Nordeste 0 -- -- 19
2018-10-02 21:00:00 24.4 10 Este 14 Este 0 -- -- 14
2018-10-02 20:00:00 28.4 7 Nordeste 10 Nordeste 0 -- -- 13
2018-10-02 19:00:00 30.3 3 Este 11 Nordeste 0 -- -- 12
2018-10-02 18:00:00 31.1 3 Este 15 Este 0 -- -- 11
2018-10-02 17:00:00 30.5 7 Nordeste 19 Nordeste 0 -- -- 12
2018-10-02 16:00:00 30.3 6 Norte 19 Nordeste 0 -- -- 12
2018-10-02 15:00:00 28.8 5 Norte 19 Nordeste 0 -- -- 13
2018-10-02 14:00:00 27.3 10 Nordeste 19 Nordeste 0 -- -- 17
2018-10-02 13:00:00 25.6 13 Nordeste 27 Este 0 -- -- 21
2018-10-02 12:00:00 24 17 Nordeste 28 Este 0 -- -- 23
2018-10-02 11:00:00 22.5 18 Nordeste 33 Nordeste 0 -- -- 27
2018-10-02 10:00:00 19.2 13 Nordeste 19 Nordeste 0 -- -- 32
2018-10-02 09:00:00 16.1 10 Nordeste 20 Nordeste 0 -- -- 36
2018-10-02 08:00:00 16.8 14 Nordeste 19 Nordeste 0 -- -- 34
2018-10-02 07:00:00 18 14 Nordeste 20 Nordeste 0 -- -- 31
2018-10-02 06:00:00 18.2 16 Nordeste 23 Nordeste 0 -- -- 30
2018-10-02 05:00:00 19.2 14 Nordeste 17 Nordeste 0 -- -- 28
2018-10-02 04:00:00 20.5 10 Nordeste 18 Nordeste 0 -- -- 27
2018-10-02 03:00:00 19.8 10 Norte 14 Norte 0 -- -- 31
2018-10-02 02:00:00 23 8 Nordeste 14 Nordeste 0 -- -- 27
2018-10-02 01:00:00 22.8 12 Nordeste 24 Este 0 -- -- 29
2018-10-02 00:00:00 24.2 12 Este 22 Nordeste 0 -- -- 33
2018-10-01 23:00:00 24.4 13 Nordeste 18 Nordeste 0 -- -- 43
2018-10-01 22:00:00 25 3 Norte 6 Noroeste 0 -- -- 44
2018-10-01 21:00:00 26.9 3 Sudoeste 10 Sudoeste 0 -- -- 40
2018-10-01 20:00:00 28.8 9 Sudoeste 13 Sudoeste 0 -- -- 38
2018-10-01 19:00:00 31.3 3 Noroeste 12 Sudoeste 0 -- -- 30
2018-10-01 18:00:00 31 6 Norte 10 Norte 0 -- -- 31
2018-10-01 17:00:00 30 2 Norte 12 Norte 0 -- -- 35
2018-10-01 16:00:00 30.4 5 Este 17 Sudoeste 0 -- -- 38
2018-10-01 15:00:00 29.4 7 Sudoeste 16 Sudoeste 0 -- -- 43
2018-10-01 14:00:00 27.9 6 Noroeste 15 Oeste 0 -- -- 47
2018-10-01 13:00:00 26.2 6 Sudoeste 14 Sudoeste 0 -- -- 53
2018-10-01 12:00:00 24 6 Sudoeste 14 Sudoeste 0 -- -- 64
2018-10-01 11:00:00 22.3 7 Sudoeste 15 Oeste 0 -- -- 73
2018-10-01 10:00:00 20.5 6 Sudoeste 11 Sudoeste 0 -- -- 77
2018-10-01 09:00:00 19.3 6 Sudoeste 10 Sudoeste 0 -- -- 78
2018-10-01 08:00:00 19.5 8 Sudoeste 11 Sur 0 -- -- 75
2018-10-01 07:00:00 19.4 5 Sudoeste 9 Sur 0 -- -- 73
2018-10-01 06:00:00 19.7 8 Sur 14 Sur 0 -- -- 72
2018-10-01 05:00:00 20.2 9 Sur 17 Sudoeste 0 -- -- 65
2018-10-01 04:00:00 21.1 8 Sur 13 Sudoeste 0 -- -- 61
2018-10-01 03:00:00 21.8 7 Sudoeste 12 Sudoeste 0 -- -- 58
2018-10-01 02:00:00 22.1 5 Sudoeste 9 Sur 0 -- -- 59
2018-10-01 01:00:00 22.6 6 Sur 8 Sudoeste 0 -- -- 55
2018-10-01 00:00:00 23.2 3 Sudeste 7 Norte 0 -- -- 50
2018-09-30 23:00:00 24.5 0 Calma 9 Nordeste 0 -- -- 49
2018-09-30 22:00:00 25.4 3 Nordeste 13 Oeste 0 -- -- 48
2018-09-30 21:00:00 26.7 9 Oeste 17 Oeste 0 -- -- 45
2018-09-30 20:00:00 28.2 14 Oeste 19 Oeste 0 -- -- 42
2018-09-30 19:00:00 30.1 12 Oeste 22 Oeste 0 -- -- 37
2018-09-30 18:00:00 30.8 6 Sudoeste 13 Sudoeste 0 -- -- 35
2018-09-30 17:00:00 30.2 6 Oeste 17 Sudoeste 0 -- -- 38
2018-09-30 16:00:00 30.1 9 Sudoeste 22 Oeste 0 -- -- 42
2018-09-30 15:00:00 28.8 8 Sudoeste 21 Sudoeste 0 -- -- 47
2018-09-30 14:00:00 27.1 9 Oeste 24 Oeste 0 -- -- 52
2018-09-30 13:00:00 25.7 10 Sudoeste 21 Sudoeste 0 -- -- 56
2018-09-30 12:00:00 24.1 10 Sudoeste 19 Sudoeste 0 -- -- 60
2018-09-30 11:00:00 22.2 9 Sudoeste 15 Sudoeste 0 -- -- 66
2018-09-30 10:00:00 19.8 3 Sudoeste 5 Sudoeste 0 -- -- 71
2018-09-30 09:00:00 18.2 0 Calma 6 Este 0 -- -- 71
2018-09-30 08:00:00 18.3 3 Nordeste 5 Este 0 -- -- 72
2018-09-30 07:00:00 18.6 3 Nordeste 5 Nordeste 0 -- -- 71
2018-09-30 06:00:00 18.5 4 Norte 6 Norte 0 -- -- 68
2018-09-30 05:00:00 19.5 2 Oeste 5 Sudoeste 0 -- -- 67
2018-09-30 04:00:00 20.2 4 Sudoeste 9 Sur 0 -- -- 64
2018-09-30 03:00:00 20.7 6 Sudoeste 8 Sudoeste 0 -- -- 60
2018-09-30 02:00:00 21.3 3 Sudoeste 6 Sur 0 -- -- 55
2018-09-30 01:00:00 22.2 4 Sudoeste 8 Sur 0 -- -- 53
2018-09-30 00:00:00 22.6 5 Sudoeste 6 Sudoeste 0 -- -- 51
2018-09-29 23:00:00 24.1 0 Calma 3 Nordeste 0 -- -- 47
2018-09-29 22:00:00 25.2 0 Calma 6 Sudoeste 0 -- -- 44
2018-09-29 21:00:00 26.7 4 Sudoeste 10 Sudoeste 0 -- -- 42
2018-09-29 20:00:00 28.5 7 Sudoeste 13 Sudoeste 0 -- -- 38
2018-09-29 19:00:00 30.4 8 Sudoeste 15 Oeste 0 -- -- 34
2018-09-29 18:00:00 30.9 7 Sudoeste 15 Sudoeste 0 -- -- 34
2018-09-29 17:00:00 30 5 Oeste 13 Sudeste 0 -- -- 36
2018-09-29 16:00:00 29.8 5 Sur 15 Sudoeste 0 -- -- 38
2018-09-29 15:00:00 28.7 8 Sudoeste 13 Sudoeste 0 -- -- 43
2018-09-29 14:00:00 27.5 4 Sur 10 Sudoeste 0 -- -- 47
2018-09-29 13:00:00 25.4 3 Sudoeste 12 Oeste 0 -- -- 55
2018-09-29 12:00:00 23.9 4 Este 9 Este 0 -- -- 59
2018-09-29 11:00:00 21.7 2 Oeste 6 Oeste 0 -- -- 70
2018-09-29 10:00:00 18.7 2 Sudoeste 4 Sudoeste 0 -- -- 78
2018-09-29 09:00:00 17 0 Calma 3 Este 0 -- -- 82
2018-09-29 08:00:00 16.7 3 Este 5 Norte 0 -- -- 81
2018-09-29 07:00:00 17.4 3 Nordeste 5 Norte 0 -- -- 83
2018-09-29 06:00:00 17.7 3 Nordeste 8 Este 0 -- -- 80
2018-09-29 05:00:00 18 0 Calma 5 Sur 0 -- -- 74
2018-09-29 04:00:00 18.6 2 Sur 6 Norte 0 -- -- 71
2018-09-29 03:00:00 19.2 3 Norte 12 Sudoeste 0 -- -- 67
2018-09-29 02:00:00 20.5 5 Sudoeste 9 Sudoeste 0 -- -- 69
2018-09-29 01:00:00 21 5 Sudoeste 8 Sudoeste 0 -- -- 64
2018-09-29 00:00:00 21.4 3 Sudoeste 7 Sudoeste 0 -- -- 54
2018-09-28 23:00:00 22.6 6 Sudoeste 7 Sudoeste 0 -- -- 50
2018-09-28 22:00:00 24 0 Calma 3 Sudoeste 0 -- -- 46
2018-09-28 21:00:00 25.9 3 Sudoeste 7 Sudoeste 0 -- -- 42
2018-09-28 20:00:00 28.9 0 Calma 9 Este 0 -- -- 33
2018-09-28 19:00:00 30.6 0 Calma 9 Sur 0 -- -- 31
2018-09-28 18:00:00 30.1 4 Sur 14 Sudoeste 0 -- -- 32
2018-09-28 17:00:00 29.4 7 Sudoeste 17 Sudoeste 0 -- -- 39
2018-09-28 16:00:00 29.2 8 Sur 21 Sudoeste 0 -- -- 42
2018-09-28 15:00:00 27.6 5 Oeste 24 Oeste 0 -- -- 47
2018-09-28 14:00:00 27.1 5 Sudoeste 15 Noroeste 0 -- -- 51
2018-09-28 13:00:00 25.9 4 Nordeste 9 Noroeste 0 -- -- 55
2018-09-28 12:00:00 24.5 5 Este 10 Este 0 -- -- 61
2018-09-28 11:00:00 23.1 3 Nordeste 11 Este 0 -- -- 68
2018-09-28 10:00:00 20.9 5 Este 8 Nordeste 0 -- -- 73
2018-09-28 09:00:00 17.8 0 Calma 4 Sudoeste 0 -- -- 81
2018-09-28 08:00:00 17.3 3 Sudoeste 6 Este 0 -- -- 82
2018-09-28 07:00:00 18.3 5 Este 6 Este 0 -- -- 80
2018-09-28 06:00:00 18.6 4 Nordeste 7 Nordeste 0 -- -- 79
2018-09-28 05:00:00 19.2 4 Norte 7 Norte 0 -- -- 76
2018-09-28 04:00:00 19.8 4 Oeste 8 Sudoeste 0 -- -- 76
2018-09-28 03:00:00 20.7 6 Sudoeste 12 Sudoeste 0 -- -- 72
2018-09-28 02:00:00 21.3 6 Sudoeste 19 Oeste 0 -- -- 68
2018-09-28 01:00:00 22.2 12 Oeste 17 Sudoeste 0 -- -- 64
2018-09-28 00:00:00 23 8 Sudoeste 12 Oeste 0 -- -- 61
2018-09-27 23:00:00 24 7 Sudoeste 21 Sudoeste 0 -- -- 59
2018-09-27 22:00:00 25.2 9 Sur 17 Sudoeste 0 -- -- 53
2018-09-27 21:00:00 27.7 3 Este 11 Este 0 -- -- 38
2018-09-27 20:00:00 29.6 9 Nordeste 17 Este 0 -- -- 34
2018-09-27 19:00:00 30.9 12 Este 22 Este 0 -- -- 33
2018-09-27 18:00:00 31 15 Nordeste 27 Nordeste 0 -- -- 33
2018-09-27 17:00:00 30.5 11 Norte 28 Este 0 -- -- 35
2018-09-27 16:00:00 30.4 15 Nordeste 27 Nordeste 0 -- -- 35
2018-09-27 15:00:00 30.4 18 Nordeste 31 Nordeste 0 -- -- 36
2018-09-27 14:00:00 29.6 13 Este 30 Este 0 -- -- 39
2018-09-27 13:00:00 28.4 17 Nordeste 31 Nordeste 0 -- -- 42
2018-09-27 12:00:00 26.6 13 Nordeste 23 Nordeste 0 -- -- 50
2018-09-27 11:00:00 25.1 12 Nordeste 17 Nordeste 0 -- -- 56
2018-09-27 10:00:00 22.6 11 Nordeste 17 Nordeste 0 -- -- 65
2018-09-27 09:00:00 19.1 6 Este 12 Nordeste 0 -- -- 75
2018-09-27 08:00:00 18.9 5 Nordeste 9 Nordeste 0 -- -- 77
2018-09-27 07:00:00 18.4 3 Norte 8 Nordeste 0 -- -- 83
2018-09-27 06:00:00 18.8 5 Nordeste 7 Nordeste 0 -- -- 83
2018-09-27 05:00:00 18.4 3 Este 7 Norte 0 -- -- 83
2018-09-27 04:00:00 19.6 0 Calma 8 Norte 0 -- -- 82
2018-09-27 03:00:00 19.9 3 Nordeste 6 Nordeste 0 -- -- 81
2018-09-27 02:00:00 20.5 3 Este 14 Sudeste 0 -- -- 80
2018-09-27 01:00:00 20.8 4 Norte 6 Este 0 -- -- 82
2018-09-27 00:00:00 21.3 3 Sudeste 6 Sur 0 -- -- 84
2018-09-26 23:00:00 21.5 5 Sur 10 Sur 0 -- -- 83
2018-09-26 22:00:00 21.7 5 Noroeste 13 Norte 0 -- -- 83
2018-09-26 21:00:00 22.6 3 Sur 13 Sudoeste 0.4 -- -- 79
2018-09-26 20:00:00 23.6 7 Oeste 24 Sudoeste 0 -- -- 65
2018-09-26 19:00:00 24.2 17 Sur 55 Nordeste 0 -- -- 69
2018-09-26 18:00:00 31.5 16 Nordeste 26 Nordeste 0 -- -- 38
2018-09-26 17:00:00 32.1 10 Nordeste 27 Nordeste 0 -- -- 39
2018-09-26 16:00:00 31.8 9 Nordeste 19 Oeste 0 -- -- 41
2018-09-26 15:00:00 31.4 5 Sudoeste 21 Nordeste 0 -- -- 42
2018-09-26 14:00:00 30.4 9 Nordeste 28 Este 0 -- -- 45
2018-09-26 13:00:00 29.7 12 Este 21 Este 0 -- -- 47
2018-09-26 12:00:00 27.4 5 Este 18 Sudeste 0 -- -- 55
2018-09-26 11:00:00 24.7 9 Nordeste 15 Nordeste 0 -- -- 64
2018-09-26 10:00:00 22.7 4 Este 10 Este 0 -- -- 68
2018-09-26 09:00:00 21.1 8 Este 10 Este 0 -- -- 72
2018-09-26 08:00:00 20.6 3 Oeste 11 Nordeste 0 -- -- 76
2018-09-26 07:00:00 21 4 Nordeste 8 Nordeste 0 -- -- 73
2018-09-26 06:00:00 21.4 5 Nordeste 11 Este 0 -- -- 72
2018-09-26 05:00:00 21.6 5 Norte 8 Norte 0 -- -- 68
2018-09-26 04:00:00 21.5 6 Norte 8 Norte 0 -- -- 69
2018-09-26 03:00:00 22.2 5 Este 8 Este 0 -- -- 63
2018-09-26 02:00:00 23.1 2 Noroeste 6 Noroeste 0 -- -- 63
2018-09-26 01:00:00 24.5 4 Noroeste 10 Sudoeste 0 -- -- 56
2018-09-26 00:00:00 25.5 9 Sudoeste 16 Sudoeste 0 -- -- 55
2018-09-25 23:00:00 26.2 6 Sudoeste 16 Sudoeste 0 -- -- 52
2018-09-25 22:00:00 26.8 9 Sudoeste 26 Sudoeste 0 -- -- 50
2018-09-25 21:00:00 28.6 12 Sudoeste 26 Sudoeste 0 -- -- 43
2018-09-25 20:00:00 31.4 17 Sur 25 Sur 0 -- -- 35
2018-09-25 19:00:00 33.9 11 Sudoeste 23 Oeste 0 -- -- 30
2018-09-25 18:00:00 34.4 14 Sudoeste 28 Sudoeste 0 -- -- 30
2018-09-25 17:00:00 34.9 11 Sudoeste 24 Sudoeste 0 -- -- 27
2018-09-25 16:00:00 34.5 10 Oeste 21 Oeste 0 -- -- 27
2018-09-25 15:00:00 34 9 Sudoeste 17 Oeste 0 -- -- 27
2018-09-25 14:00:00 32.5 5 Oeste 14 Oeste 0 -- -- 28
2018-09-25 13:00:00 31.2 5 Nordeste 10 Nordeste 0 -- -- 29
2018-09-25 12:00:00 29.7 3 Nordeste 6 Nordeste 0 -- -- 31
2018-09-25 11:00:00 26.9 0 Calma 4 Sudoeste 0 -- -- 34
2018-09-25 10:00:00 23.7 0 Calma 8 Nordeste 0 -- -- 44
2018-09-25 09:00:00 20.5 6 Nordeste 10 Nordeste 0 -- -- 47
2018-09-25 08:00:00 21 3 Nordeste 5 Nordeste 0 -- -- 46
2018-09-25 07:00:00 21.4 2 Este 5 Nordeste 0 -- -- 44
2018-09-25 06:00:00 22.3 4 Nordeste 5 Norte 0 -- -- 43
2018-09-25 05:00:00 22.8 3 Sudeste 6 Sudeste 0 -- -- 42
2018-09-25 04:00:00 23.3 5 Sudeste 8 Sur 0 -- -- 41
2018-09-25 03:00:00 23.5 4 Sudeste 13 Sudoeste 0 -- -- 40
2018-09-25 02:00:00 24.7 4 Sudoeste 10 Oeste 0 -- -- 39
2018-09-25 01:00:00 24.7 6 Noroeste 12 Nordeste 0 -- -- 39
2018-09-25 00:00:00 26.7 3 Sudoeste 13 Sudoeste 0 -- -- 35
2018-09-24 23:00:00 27.8 7 Sudoeste 14 Sudoeste 0 -- -- 34
2018-09-24 22:00:00 29.1 9 Sudoeste 22 Sudoeste 0 -- -- 31
2018-09-24 21:00:00 31.5 13 Sur 23 Sur 0 -- -- 28
2018-09-24 20:00:00 35.5 5 Sudoeste 8 Este 0 -- -- 24
2018-09-24 19:00:00 36.8 3 Este 13 Sudeste 0 -- -- 22
2018-09-24 18:00:00 36.9 5 Sudoeste 20 Sudoeste 0 -- -- 22
2018-09-24 17:00:00 36.6 7 Nordeste 19 Este 0 -- -- 23
2018-09-24 16:00:00 35.5 6 Este 16 Este 0 -- -- 25
2018-09-24 15:00:00 34.8 6 Norte 21 Norte 0 -- -- 25
2018-09-24 14:00:00 33.6 6 Nordeste 13 Este 0 -- -- 26
2018-09-24 13:00:00 31.9 5 Este 15 Nordeste 0 -- -- 28
2018-09-24 12:00:00 29.5 6 Norte 10 Norte 0 -- -- 30
2018-09-24 11:00:00 28 4 Este 9 Nordeste 0 -- -- 33
2018-09-24 10:00:00 22.5 4 Nordeste 8 Norte 0 -- -- 47
2018-09-24 09:00:00 19.7 5 Norte 10 Nordeste 0 -- -- 51
2018-09-24 08:00:00 20.7 3 Norte 6 Norte 0 -- -- 46
2018-09-24 07:00:00 20.8 5 Nordeste 6 Nordeste 0 -- -- 45
2018-09-24 06:00:00 20.6 0 Calma 5 Este 0 -- -- 47
2018-09-24 05:00:00 20.9 3 Nordeste 6 Este 0 -- -- 45
2018-09-24 04:00:00 22.2 0 Calma 6 Nordeste 0 -- -- 43
2018-09-24 03:00:00 23.3 3 Este 7 Este 0 -- -- 40
2018-09-24 02:00:00 24.2 5 Este 6 Nordeste 0 -- -- 39
2018-09-24 01:00:00 24.9 3 Noroeste 7 Sudoeste 0 -- -- 38
2018-09-24 00:00:00 26.7 7 Sudoeste 15 Sudoeste 0 -- -- 36
2018-09-23 23:00:00 27.3 11 Sudoeste 15 Sudoeste 0 -- -- 35
2018-09-23 22:00:00 28.9 9 Sudoeste 24 Sur 0 -- -- 32
2018-09-23 21:00:00 31.2 0 Calma 8 Este 0 -- -- 28
2018-09-23 20:00:00 34.4 6 Nordeste 18 Nordeste 0 -- -- 25
2018-09-23 19:00:00 36 8 Nordeste 20 Este 0 -- -- 23
2018-09-23 18:00:00 36.1 8 Este 26 Nordeste 0 -- -- 23
2018-09-23 17:00:00 36.1 11 Nordeste 27 Este 0 -- -- 23
2018-09-23 16:00:00 35.7 8 Nordeste 24 Nordeste 0 -- -- 25
2018-09-23 15:00:00 34.2 11 Norte 28 Noroeste 0 -- -- 27
2018-09-23 14:00:00 33.4 5 Nordeste 18 Nordeste 0 -- -- 31
2018-09-23 13:00:00 31.3 9 Nordeste 15 Nordeste 0 -- -- 34
2018-09-23 12:00:00 29.3 7 Nordeste 14 Norte 0 -- -- 37
2018-09-23 11:00:00 26.7 7 Norte 12 Norte 0 -- -- 44
2018-09-23 10:00:00 23.6 4 Nordeste 6 Norte 0 -- -- 51
2018-09-23 09:00:00 20.8 2 Nordeste 5 Nordeste 0 -- -- 56
2018-09-23 08:00:00 20.4 0 Calma 9 Nordeste 0 -- -- 56
2018-09-23 07:00:00 21.1 4 Nordeste 8 Nordeste 0 -- -- 53
2018-09-23 06:00:00 21.4 2 Este 3 Este 0 -- -- 52
2018-09-23 05:00:00 22.1 0 Calma 6 Este 0 -- -- 50
2018-09-23 04:00:00 22.7 3 Este 5 Este 0 -- -- 49
2018-09-23 03:00:00 23.2 3 Sudoeste 6 Oeste 0 -- -- 48
2018-09-23 02:00:00 23.8 3 Norte 6 Noroeste 0 -- -- 48
2018-09-23 01:00:00 25.1 2 Noroeste 8 Sudoeste 0 -- -- 46
2018-09-23 00:00:00 26.1 7 Sudoeste 16 Sudoeste 0 -- -- 44
2018-09-22 23:00:00 26.7 9 Sudoeste 14 Sudoeste 0 -- -- 42
2018-09-22 22:00:00 28.4 6 Sudoeste 21 Sudoeste 0 -- -- 39
2018-09-22 21:00:00 30.9 11 Sudoeste 20 Sudoeste 0 -- -- 37
2018-09-22 20:00:00 34.1 7 Norte 18 Norte 0 -- -- 26
2018-09-22 19:00:00 35.6 9 Norte 21 Nordeste 0 -- -- 25
2018-09-22 18:00:00 36 9 Norte 20 Norte 0 -- -- 25
2018-09-22 17:00:00 35.7 11 Nordeste 24 Nordeste 0 -- -- 26
2018-09-22 16:00:00 35.1 10 Norte 21 Nordeste 0 -- -- 27
2018-09-22 15:00:00 34.7 9 Nordeste 18 Norte 0 -- -- 27
2018-09-22 14:00:00 33.5 6 Nordeste 17 Nordeste 0 -- -- 32
2018-09-22 13:00:00 31.5 8 Norte 17 Norte 0 -- -- 36
2018-09-22 12:00:00 29.6 8 Norte 16 Nordeste 0 -- -- 42
2018-09-22 11:00:00 27.6 9 Nordeste 15 Nordeste 0 -- -- 46
2018-09-22 10:00:00 24.6 3 Nordeste 7 Nordeste 0 -- -- 56
2018-09-22 09:00:00 21.7 5 Nordeste 10 Nordeste 0 -- -- 59
2018-09-22 08:00:00 21.2 8 Nordeste 10 Nordeste 0 -- -- 61
2018-09-22 07:00:00 21.8 6 Nordeste 8 Este 0 -- -- 56
2018-09-22 06:00:00 21.3 3 Nordeste 6 Norte 0 -- -- 58
2018-09-22 05:00:00 22 4 Nordeste 5 Nordeste 0 -- -- 56
2018-09-22 04:00:00 22.6 3 Norte 5 Nordeste 0 -- -- 54
2018-09-22 03:00:00 23.6 2 Sur 5 Sudoeste 0 -- -- 51
2018-09-22 02:00:00 24.7 5 Sudoeste 8 Sudoeste 0 -- -- 49
2018-09-22 01:00:00 25.2 2 Sur 8 Sudoeste 0 -- -- 49
2018-09-22 00:00:00 26.4 6 Sudoeste 13 Sudoeste 0 -- -- 47
2018-09-21 23:00:00 27.6 8 Sur 12 Sur 0 -- -- 43
2018-09-21 22:00:00 29 8 Oeste 12 Noroeste 0 -- -- 41
2018-09-21 21:00:00 29.8 5 Noroeste 10 Oeste 0 -- -- 38
2018-09-21 20:00:00 32.7 3 Noroeste 12 Oeste 0 -- -- 34
2018-09-21 19:00:00 34 6 Noroeste 16 Noroeste 0 -- -- 32
2018-09-21 18:00:00 33.8 6 Noroeste 18 Norte 0 -- -- 33
2018-09-21 17:00:00 33.3 9 Norte 19 Norte 0 -- -- 32
2018-09-21 16:00:00 33 6 Norte 15 Noroeste 0 -- -- 36
2018-09-21 15:00:00 31.9 5 Nordeste 14 Nordeste 0 -- -- 39
2018-09-21 14:00:00 31 4 Nordeste 14 Oeste 0 -- -- 41
2018-09-21 13:00:00 29.1 4 Nordeste 13 Nordeste 0 -- -- 47
2018-09-21 12:00:00 27.6 8 Norte 14 Norte 0 -- -- 52
2018-09-21 11:00:00 26.5 4 Este 8 Nordeste 0 -- -- 55
2018-09-21 10:00:00 23.7 4 Nordeste 8 Nordeste 0 -- -- 66
2018-09-21 09:00:00 20.5 6 Este 8 Este 0 -- -- 76
2018-09-21 08:00:00 19.8 5 Norte 8 Norte 0 -- -- 79
2018-09-21 07:00:00 21.1 3 Sur 7 Sur 0 -- -- 74
2018-09-21 06:00:00 21.2 3 Sudoeste 12 Sur 0 -- -- 73
2018-09-21 05:00:00 21.6 10 Sur 14 Sur 0 -- -- 71
2018-09-21 04:00:00 22.5 8 Sudoeste 12 Sudoeste 0 -- -- 69
2018-09-21 03:00:00 23.2 7 Sudoeste 12 Sudoeste 0 -- -- 68
2018-09-21 02:00:00 23.9 7 Sur 18 Sur 0 -- -- 64
2018-09-21 01:00:00 24.3 10 Sur 16 Sudoeste 0 -- -- 59
2018-09-21 00:00:00 25.5 9 Sur 21 Sur 0 -- -- 53
2018-09-20 23:00:00 26.2 8 Sur 16 Sur 0 -- -- 52
2018-09-20 22:00:00 27.3 9 Sudoeste 18 Sur 0 -- -- 49
2018-09-20 21:00:00 29.1 8 Sudoeste 14 Sudoeste 0 -- -- 42
2018-09-20 20:00:00 30.8 6 Sudoeste 15 Sudoeste 0 -- -- 41
2018-09-20 19:00:00 32.4 6 Sudoeste 20 Sudoeste 0 -- -- 37
2018-09-20 18:00:00 32.9 8 Oeste 26 Oeste 0 -- -- 33
2018-09-20 17:00:00 33 7 Sudoeste 22 Sudoeste 0 -- -- 33
2018-09-20 16:00:00 32.8 9 Sudoeste 19 Oeste 0 -- -- 36
2018-09-20 15:00:00 32.1 6 Sur 18 Sudoeste 0 -- -- 41
2018-09-20 14:00:00 31.2 6 Este 15 Nordeste 0 -- -- 42
2018-09-20 13:00:00 29.5 6 Nordeste 17 Nordeste 0 -- -- 47
2018-09-20 12:00:00 27.6 8 Nordeste 16 Nordeste 0 -- -- 55
2018-09-20 11:00:00 25.4 9 Nordeste 15 Nordeste 0 -- -- 62
2018-09-20 10:00:00 23.8 7 Nordeste 11 Nordeste 0 -- -- 69
2018-09-20 09:00:00 20.7 8 Este 10 Este 0 -- -- 74
2018-09-20 08:00:00 20.2 4 Norte 8 Este 0 -- -- 76
2018-09-20 07:00:00 20.8 5 Nordeste 6 Nordeste 0 -- -- 72
2018-09-20 06:00:00 20.6 2 Este -- -- 0 -- -- 73
2018-09-20 05:00:00 21.3 4 Norte 8 Norte 0 -- -- 70
2018-09-20 04:00:00 22.1 4 Norte 7 Nordeste 0 -- -- 68
2018-09-20 03:00:00 22.5 3 Este 8 Oeste 0 -- -- 66
2018-09-20 02:00:00 23.5 3 Noroeste 8 Norte 0 -- -- 63
2018-09-20 01:00:00 23.8 4 Norte 7 Sudoeste 0 -- -- 61
2018-09-20 00:00:00 25.6 4 Sudoeste 6 Sudeste 0 -- -- 54